createdAt,value
2023-05-06T00:00:08.028Z,6.75
2023-05-06T00:02:34.933Z,5.70
2023-05-06T00:05:03.345Z,5.85
2023-05-06T00:07:30.484Z,4.90
2023-05-06T00:09:57.307Z,4.60
2023-05-06T00:12:24.212Z,6.03
2023-05-06T00:14:51.125Z,6.45
2023-05-06T00:17:18.314Z,5.32
2023-05-06T00:19:45.240Z,6.18
2023-05-06T00:22:12.129Z,5.40
2023-05-06T00:24:38.975Z,5.05
2023-05-06T00:27:05.922Z,6.53
2023-05-06T00:29:32.715Z,7.03
2023-05-06T00:31:59.590Z,7.43
2023-05-06T00:34:26.488Z,7.43
2023-05-06T00:36:53.300Z,9.98
2023-05-06T00:39:21.113Z,8.30
2023-05-06T00:41:48.009Z,8.25
2023-05-06T00:44:15.108Z,8.05
2023-05-06T00:46:43.526Z,6.95
2023-05-06T00:49:11.904Z,6.57
2023-05-06T00:51:38.849Z,7.10
2023-05-06T00:54:05.887Z,6.93
2023-05-06T00:56:33.042Z,7.78
2023-05-06T00:59:01.604Z,6.07
2023-05-06T01:01:31.487Z,6.15
2023-05-06T01:03:59.039Z,7.80
2023-05-06T01:06:44.697Z,6.47
2023-05-06T01:09:50.558Z,5.90
2023-05-06T01:12:36.549Z,6.30
2023-05-06T01:15:16.387Z,6.30
2023-05-06T01:17:50.315Z,5.15
2023-05-06T01:20:21.263Z,5.63
2023-05-06T01:22:50.252Z,5.88
2023-05-06T01:25:23.780Z,5.85
2023-05-06T01:27:50.837Z,5.20
2023-05-06T01:30:20.201Z,5.00
2023-05-06T01:33:08.435Z,5.30
2023-05-06T01:36:05.256Z,5.25
2023-05-06T01:38:52.370Z,5.15
2023-05-06T01:41:21.928Z,5.20
2023-05-06T01:43:50.573Z,5.30
2023-05-06T01:46:23.657Z,5.07
2023-05-06T01:48:55.052Z,5.22
2023-05-06T01:51:22.820Z,4.78
2023-05-06T01:53:49.912Z,5.20
2023-05-06T01:56:17.506Z,4.93
2023-05-06T01:58:44.371Z,4.95
2023-05-06T02:01:11.382Z,4.82
2023-05-06T02:03:38.397Z,5.38
2023-05-06T02:06:05.373Z,4.88
2023-05-06T02:08:32.205Z,5.10
2023-05-06T02:10:59.025Z,5.10
2023-05-06T02:13:26.096Z,4.35
2023-05-06T02:15:54.634Z,4.80
2023-05-06T02:18:21.622Z,5.05
2023-05-06T02:20:48.542Z,4.80
2023-05-06T02:23:15.555Z,5.10
2023-05-06T02:25:43.149Z,5.03
2023-05-06T02:28:10.108Z,4.93
2023-05-06T02:30:36.969Z,4.97
2023-05-06T02:33:04.105Z,4.80
2023-05-06T02:35:30.988Z,5.32
2023-05-06T02:37:57.844Z,4.45
2023-05-06T02:40:24.725Z,4.65
2023-05-06T02:42:51.619Z,4.57
2023-05-06T02:45:18.618Z,4.50
2023-05-06T02:47:45.571Z,4.68
2023-05-06T02:50:12.426Z,4.68
2023-05-06T02:52:39.334Z,5.05
2023-05-06T02:55:07.184Z,4.40
2023-05-06T02:57:34.209Z,4.57
2023-05-06T03:00:01.122Z,4.70
2023-05-06T03:02:28.009Z,4.40
2023-05-06T03:04:54.975Z,4.60
2023-05-06T03:07:21.809Z,4.43
2023-05-06T03:09:48.622Z,4.50
2023-05-06T03:12:15.582Z,4.40
2023-05-06T03:14:42.445Z,4.28
2023-05-06T03:17:09.312Z,4.57
2023-05-06T03:19:36.406Z,4.70
2023-05-06T03:22:03.445Z,4.60
2023-05-06T03:24:30.370Z,4.72
2023-05-06T03:26:58.519Z,4.80
2023-05-06T03:29:25.496Z,4.88
2023-05-06T03:31:52.356Z,4.72
2023-05-06T03:34:19.176Z,4.43
2023-05-06T03:36:46.247Z,4.63
2023-05-06T03:39:13.105Z,4.32
2023-05-06T03:41:40.083Z,5.00
2023-05-06T03:44:06.951Z,5.50
2023-05-06T03:46:33.870Z,5.05
2023-05-06T03:49:02.725Z,4.72
2023-05-06T03:51:30.780Z,4.80
2023-05-06T03:53:58.300Z,4.90
2023-05-06T03:56:25.157Z,4.53
2023-05-06T03:58:53.768Z,4.43
2023-05-06T04:01:21.732Z,4.10
2023-05-06T04:03:48.679Z,4.47
2023-05-06T04:06:15.551Z,4.00
2023-05-06T04:08:42.430Z,4.30
2023-05-06T04:11:09.350Z,4.15
2023-05-06T04:13:36.502Z,4.25
2023-05-06T04:16:04.101Z,4.53
2023-05-06T04:18:31.589Z,4.20
2023-05-06T04:20:58.458Z,4.18
2023-05-06T04:23:25.458Z,4.63
2023-05-06T04:25:52.964Z,4.30
2023-05-06T04:28:19.760Z,4.40
2023-05-06T04:30:46.959Z,4.40
2023-05-06T04:33:13.909Z,4.13
2023-05-06T04:35:41.174Z,4.22
2023-05-06T04:38:07.982Z,4.20
2023-05-06T04:40:38.625Z,4.00
2023-05-06T04:43:05.406Z,4.25
2023-05-06T04:45:32.544Z,3.95
2023-05-06T04:47:59.424Z,4.20
2023-05-06T04:50:26.350Z,4.10
2023-05-06T04:52:53.228Z,4.32
2023-05-06T04:55:20.276Z,4.15
2023-05-06T04:57:47.122Z,4.28
2023-05-06T05:00:14.635Z,3.88
2023-05-06T05:02:41.585Z,4.05
2023-05-06T05:05:09.054Z,4.25
2023-05-06T05:07:36.086Z,3.97
2023-05-06T05:10:03.081Z,3.80
2023-05-06T05:12:29.928Z,4.18
2023-05-06T05:14:56.741Z,4.07
2023-05-06T05:17:23.609Z,3.72
2023-05-06T05:19:50.611Z,4.07
2023-05-06T05:22:17.447Z,3.90
2023-05-06T05:24:44.600Z,3.83
2023-05-06T05:27:11.469Z,3.67
2023-05-06T05:29:38.879Z,4.20
2023-05-06T05:32:05.766Z,4.18
2023-05-06T05:34:32.692Z,3.67
2023-05-06T05:36:59.568Z,3.80
2023-05-06T05:39:26.371Z,4.15
2023-05-06T05:41:53.238Z,3.65
2023-05-06T05:44:20.163Z,3.75
2023-05-06T05:46:47.100Z,3.65
2023-05-06T05:49:13.936Z,3.70
2023-05-06T05:51:40.810Z,3.40
2023-05-06T05:54:07.770Z,3.40
2023-05-06T05:56:34.762Z,3.60
2023-05-06T05:59:01.952Z,3.47
2023-05-06T06:01:28.935Z,3.47
2023-05-06T06:03:56.353Z,3.63
2023-05-06T06:06:24.313Z,3.47
2023-05-06T06:08:51.268Z,3.30
2023-05-06T06:11:18.291Z,3.70
2023-05-06T06:13:45.142Z,3.28
2023-05-06T06:16:12.174Z,3.33
2023-05-06T06:18:39.086Z,3.15
2023-05-06T06:21:06.025Z,3.35
2023-05-06T06:23:32.927Z,3.90
2023-05-06T06:25:59.955Z,3.40
2023-05-06T06:28:27.039Z,3.25
2023-05-06T06:30:54.041Z,3.60
2023-05-06T06:33:21.012Z,3.42
2023-05-06T06:35:47.926Z,3.42
2023-05-06T06:38:14.727Z,3.00
2023-05-06T06:40:41.601Z,3.42
2023-05-06T06:43:08.450Z,3.30
2023-05-06T06:45:35.687Z,3.20
2023-05-06T06:48:02.571Z,2.88
2023-05-06T06:50:29.582Z,2.95
2023-05-06T06:52:56.499Z,3.22
2023-05-06T06:55:23.462Z,2.80
2023-05-06T06:57:50.357Z,3.13
2023-05-06T07:00:17.431Z,2.97
2023-05-06T07:02:44.387Z,2.75
2023-05-06T07:05:11.549Z,3.33
2023-05-06T07:07:38.747Z,3.30
2023-05-06T07:10:07.024Z,3.40
2023-05-06T07:12:34.012Z,3.10
2023-05-06T07:15:00.917Z,3.03
2023-05-06T07:17:27.797Z,3.22
2023-05-06T07:19:54.658Z,2.88
2023-05-06T07:22:21.560Z,3.72
2023-05-06T07:24:48.509Z,3.83
2023-05-06T07:27:15.386Z,3.00
2023-05-06T07:29:42.301Z,2.60
2023-05-06T07:32:09.264Z,2.85
2023-05-06T07:34:36.468Z,2.90
2023-05-06T07:37:03.942Z,2.80
2023-05-06T07:39:31.158Z,3.13
2023-05-06T07:41:58.585Z,2.70
2023-05-06T07:44:25.493Z,2.65
2023-05-06T07:46:52.665Z,2.97
2023-05-06T07:49:19.709Z,2.90
2023-05-06T07:51:46.628Z,2.90
2023-05-06T07:54:13.541Z,3.10
2023-05-06T07:56:40.548Z,2.80
2023-05-06T07:59:07.509Z,2.88
2023-05-06T08:01:34.397Z,3.38
2023-05-06T08:04:04.857Z,4.32
2023-05-06T08:06:32.260Z,3.17
2023-05-06T08:08:59.687Z,2.67
2023-05-06T08:11:26.619Z,2.70
2023-05-06T08:13:53.539Z,3.22
2023-05-06T08:16:21.632Z,2.72
2023-05-06T08:18:49.406Z,2.70
2023-05-06T08:21:16.257Z,2.97
2023-05-06T08:23:43.237Z,2.78
2023-05-06T08:26:10.090Z,2.97
2023-05-06T08:28:36.908Z,3.30
2023-05-06T08:31:03.792Z,2.90
2023-05-06T08:33:30.924Z,2.80
2023-05-06T08:35:59.087Z,2.88
2023-05-06T08:38:26.442Z,3.17
2023-05-06T08:40:54.825Z,3.05
2023-05-06T08:43:27.396Z,2.70
2023-05-06T08:45:55.454Z,2.63
2023-05-06T08:48:22.322Z,2.88
2023-05-06T08:50:51.021Z,2.78
2023-05-06T08:53:18.765Z,2.83
2023-05-06T08:55:49.350Z,2.72
2023-05-06T08:58:18.038Z,2.70
2023-05-06T09:00:46.378Z,2.63
2023-05-06T09:03:13.627Z,3.28
2023-05-06T09:05:40.778Z,2.60
2023-05-06T09:08:07.705Z,2.70
2023-05-06T09:10:45.244Z,2.80
2023-05-06T09:13:18.578Z,2.80
2023-05-06T09:15:49.129Z,2.80
2023-05-06T09:18:17.013Z,3.25
2023-05-06T09:20:48.119Z,2.78
2023-05-06T09:23:17.830Z,2.92
2023-05-06T09:25:47.166Z,2.80
2023-05-06T09:28:14.726Z,2.60
2023-05-06T09:30:45.043Z,2.45
2023-05-06T09:33:12.702Z,2.67
2023-05-06T09:35:44.263Z,2.42
2023-05-06T09:38:11.130Z,2.63
2023-05-06T09:40:39.181Z,2.75
2023-05-06T09:43:06.641Z,2.22
2023-05-06T09:45:33.807Z,2.92
2023-05-06T09:48:01.145Z,2.53
2023-05-06T09:50:28.726Z,2.90
2023-05-06T09:52:56.455Z,3.08
2023-05-06T09:55:26.639Z,3.00
2023-05-06T09:57:55.099Z,3.08
2023-05-06T10:00:28.064Z,2.70
2023-05-06T10:05:25.945Z,2.85
2023-05-06T10:07:54.813Z,2.50
2023-05-06T10:10:25.408Z,2.53
2023-05-06T10:12:52.814Z,2.80
2023-05-06T10:15:19.880Z,2.85
2023-05-06T10:17:52.557Z,3.00
2023-05-06T10:20:21.683Z,2.80
2023-05-06T10:23:13.642Z,3.75
2023-05-06T10:25:43.901Z,3.35
2023-05-06T10:28:12.897Z,3.08
2023-05-06T10:30:48.091Z,2.90
2023-05-06T10:33:18.890Z,2.95
2023-05-06T10:36:01.445Z,3.03
2023-05-06T10:38:39.998Z,2.95
2023-05-06T10:41:09.636Z,2.60
2023-05-06T10:43:44.004Z,2.70
2023-05-06T10:46:16.711Z,2.70
2023-05-06T10:49:11.854Z,2.80
2023-05-06T10:51:42.537Z,2.70
2023-05-06T10:54:18.376Z,2.70
2023-05-06T10:56:48.321Z,3.20
2023-05-06T10:59:24.035Z,2.90
2023-05-06T11:02:08.459Z,3.03
2023-05-06T11:04:37.503Z,2.92
2023-05-06T11:07:13.723Z,3.33
2023-05-06T11:09:59.605Z,2.80
2023-05-06T11:12:46.147Z,2.75
2023-05-06T11:15:38.053Z,2.85
2023-05-06T11:18:30.908Z,2.60
2023-05-06T11:21:00.964Z,2.65
2023-05-06T11:23:43.274Z,2.75
2023-05-06T11:26:11.696Z,3.08
2023-05-06T11:28:40.302Z,2.22
2023-05-06T11:31:08.997Z,2.90
2023-05-06T11:33:37.500Z,2.88
2023-05-06T11:36:05.324Z,2.92
2023-05-06T11:38:56.397Z,3.10
2023-05-06T11:41:23.696Z,2.60
2023-05-06T11:43:55.623Z,3.33
2023-05-06T11:46:29.513Z,3.08
2023-05-06T11:48:56.397Z,3.20
2023-05-06T11:51:24.691Z,3.10
2023-05-06T11:53:54.269Z,2.90
2023-05-06T11:56:21.230Z,2.80
2023-05-06T11:58:48.111Z,2.70
2023-05-06T12:01:14.951Z,2.60
2023-05-06T12:03:41.924Z,2.70
2023-05-06T12:06:08.860Z,2.60
2023-05-06T12:08:37.730Z,2.78
2023-05-06T12:11:09.215Z,2.63
2023-05-06T12:13:37.780Z,4.22
2023-05-06T12:16:08.249Z,3.53
2023-05-06T12:18:37.315Z,9.20
2023-05-06T12:21:04.509Z,18.67
2023-05-06T12:23:31.617Z,24.77
2023-05-06T12:26:08.305Z,14.10
2023-05-06T12:28:36.984Z,18.83
2023-05-06T12:31:24.220Z,6.43
2023-05-06T12:33:51.413Z,12.85
2023-05-06T12:36:19.537Z,3.45
2023-05-06T12:38:57.785Z,3.25
2023-05-06T12:41:36.346Z,4.28
2023-05-06T12:44:32.312Z,2.97
2023-05-06T12:47:03.377Z,2.90
2023-05-06T12:49:51.664Z,3.13
2023-05-06T12:52:30.937Z,3.20
2023-05-06T12:55:01.637Z,2.97
2023-05-06T12:57:28.531Z,3.25
2023-05-06T12:59:56.351Z,3.00
2023-05-06T13:02:23.430Z,3.33
2023-05-06T13:04:50.414Z,3.13
2023-05-06T13:07:17.250Z,3.03
2023-05-06T13:09:44.834Z,3.40
2023-05-06T13:12:11.772Z,3.05
2023-05-06T13:14:40.168Z,3.35
2023-05-06T13:17:08.163Z,2.83
2023-05-06T13:19:35.865Z,3.03
2023-05-06T13:22:02.917Z,3.17
2023-05-06T13:24:30.766Z,3.58
2023-05-06T13:26:59.845Z,3.30
2023-05-06T13:29:29.470Z,3.22
2023-05-06T13:31:56.470Z,3.10
2023-05-06T13:34:23.527Z,3.10
2023-05-06T13:36:51.472Z,3.05
2023-05-06T13:39:18.640Z,3.42
2023-05-06T13:41:50.058Z,3.40
2023-05-06T13:44:18.301Z,4.53
2023-05-06T13:46:46.508Z,4.53
2023-05-06T13:49:14.843Z,6.32
2023-05-06T13:51:41.822Z,5.20
2023-05-06T13:54:08.714Z,3.13
2023-05-06T13:56:35.901Z,6.05
2023-05-06T13:59:02.749Z,5.70
2023-05-06T14:01:29.721Z,4.38
2023-05-06T14:04:00.136Z,5.18
2023-05-06T14:06:27.627Z,5.45
2023-05-06T14:08:54.765Z,6.50
2023-05-06T14:11:21.642Z,5.10
2023-05-06T14:13:48.955Z,5.05
2023-05-06T14:16:16.660Z,3.47
2023-05-06T14:18:43.588Z,4.70
2023-05-06T14:21:10.480Z,4.65
2023-05-06T14:23:37.918Z,4.45
2023-05-06T14:26:04.926Z,3.63
2023-05-06T14:28:31.753Z,4.03
2023-05-06T14:30:59.502Z,4.70
2023-05-06T14:33:26.379Z,3.00
2023-05-06T14:35:53.320Z,2.80
2023-05-06T14:38:20.468Z,3.50
2023-05-06T14:40:47.291Z,4.07
2023-05-06T14:43:14.166Z,3.50
2023-05-06T14:45:41.288Z,4.53
2023-05-06T14:48:08.593Z,4.07
2023-05-06T14:50:36.011Z,3.33
2023-05-06T14:53:03.977Z,3.97
2023-05-06T14:55:31.202Z,3.97
2023-05-06T14:57:58.024Z,3.30
2023-05-06T15:00:25.296Z,3.50
2023-05-06T15:02:52.198Z,3.65
2023-05-06T15:05:19.201Z,3.83
2023-05-06T15:07:46.376Z,4.22
2023-05-06T15:10:13.452Z,3.60
2023-05-06T15:12:40.412Z,3.67
2023-05-06T15:15:08.576Z,6.20
2023-05-06T15:17:38.132Z,3.90
2023-05-06T15:20:07.004Z,6.53
2023-05-06T15:22:34.064Z,4.75
2023-05-06T15:25:01.634Z,8.20
2023-05-06T15:27:28.696Z,32.35
2023-05-06T15:29:55.723Z,14.07
2023-05-06T15:32:22.712Z,6.15
2023-05-06T15:34:49.590Z,4.07
2023-05-06T15:37:19.263Z,4.03
2023-05-06T15:39:47.945Z,6.28
2023-05-06T15:42:16.910Z,5.85
2023-05-06T15:44:43.970Z,4.10
2023-05-06T15:47:10.949Z,6.38
2023-05-06T15:52:08.334Z,9.98
2023-05-06T15:54:37.530Z,6.60
2023-05-06T15:57:07.471Z,4.60
2023-05-06T15:59:34.460Z,6.60
2023-05-06T16:02:26.231Z,4.32
2023-05-06T16:04:48.955Z,4.97
2023-05-06T16:07:16.620Z,5.20
2023-05-06T16:09:43.450Z,7.60
2023-05-06T16:12:10.375Z,4.85
2023-05-06T16:14:37.369Z,7.05
2023-05-06T16:17:04.294Z,4.13
2023-05-06T16:19:32.100Z,4.28
2023-05-06T16:21:59.100Z,6.55
2023-05-06T16:24:25.914Z,6.15
2023-05-06T16:26:54.677Z,8.57
2023-05-06T16:29:21.744Z,9.13
2023-05-06T16:31:49.149Z,8.95
2023-05-06T16:34:16.149Z,9.43
2023-05-06T16:36:43.608Z,6.55
2023-05-06T16:39:10.489Z,7.40
2023-05-06T16:41:37.416Z,7.03
2023-05-06T16:44:04.520Z,5.43
2023-05-06T16:46:33.108Z,8.07
2023-05-06T16:49:00.070Z,10.15
2023-05-06T16:51:26.987Z,8.85
2023-05-06T16:53:53.807Z,8.27
2023-05-06T16:56:20.673Z,7.32
2023-05-06T16:58:47.507Z,8.98
2023-05-06T17:01:14.428Z,7.65
2023-05-06T17:03:41.443Z,7.90
2023-05-06T17:06:08.424Z,7.40
2023-05-06T17:08:36.761Z,5.90
2023-05-06T17:11:07.114Z,5.13
2023-05-06T17:13:34.840Z,6.40
2023-05-06T17:16:01.772Z,7.20
2023-05-06T17:18:28.772Z,8.43
2023-05-06T17:20:57.460Z,6.72
2023-05-06T17:23:25.087Z,7.20
2023-05-06T17:25:52.085Z,6.53
2023-05-06T17:28:19.258Z,11.23
2023-05-06T17:30:46.674Z,6.28
2023-05-06T17:33:13.803Z,5.95
2023-05-06T17:35:40.760Z,7.15
2023-05-06T17:38:07.979Z,8.50
2023-05-06T17:40:34.887Z,6.72
2023-05-06T17:43:01.952Z,7.15
2023-05-06T17:45:28.982Z,10.95
2023-05-06T17:47:56.671Z,9.57
2023-05-06T17:50:23.924Z,14.20
2023-05-06T17:52:52.782Z,26.08
2023-05-06T17:55:23.893Z,15.20
2023-05-06T17:57:52.533Z,13.55
2023-05-06T18:00:19.943Z,11.68
2023-05-06T18:02:47.098Z,9.82
2023-05-06T18:05:14.348Z,9.68
2023-05-06T18:07:41.697Z,21.17
2023-05-06T18:10:09.352Z,28.75
2023-05-06T18:12:36.899Z,31.63
2023-05-06T18:15:05.038Z,16.13
2023-05-06T18:17:31.929Z,11.27
2023-05-06T18:19:58.959Z,12.02
2023-05-06T18:22:26.037Z,17.02
2023-05-06T18:24:55.317Z,17.60
2023-05-06T18:27:23.088Z,8.35
2023-05-06T18:29:50.203Z,10.73
2023-05-06T18:32:18.231Z,8.85
2023-05-06T18:34:45.359Z,8.82
2023-05-06T18:37:12.353Z,6.32
2023-05-06T18:39:42.786Z,8.02
2023-05-06T18:42:09.912Z,8.32
2023-05-06T18:44:37.259Z,7.35
2023-05-06T18:47:04.312Z,11.25
2023-05-06T18:49:31.484Z,10.38
2023-05-06T18:51:58.557Z,7.28
2023-05-06T18:54:25.729Z,6.18
2023-05-06T18:56:52.700Z,7.70
2023-05-06T18:59:19.712Z,11.98
2023-05-06T19:01:47.794Z,9.35
2023-05-06T19:04:14.881Z,7.05
2023-05-06T19:06:42.127Z,7.53
2023-05-06T19:09:09.013Z,8.45
2023-05-06T19:11:36.043Z,9.50
2023-05-06T19:14:03.664Z,8.00
2023-05-06T19:16:30.571Z,9.38
2023-05-06T19:18:57.512Z,18.70
2023-05-06T19:21:24.531Z,7.97
2023-05-06T19:23:51.491Z,10.15
2023-05-06T19:26:18.442Z,9.20
2023-05-06T19:28:45.646Z,9.90
2023-05-06T19:31:12.621Z,8.82
2023-05-06T19:33:40.957Z,7.47
2023-05-06T19:36:07.878Z,8.52
2023-05-06T19:38:35.262Z,15.02
2023-05-06T19:41:02.672Z,10.82
2023-05-06T19:43:29.861Z,8.98
2023-05-06T19:45:57.173Z,8.35
2023-05-06T19:48:24.399Z,8.05
2023-05-06T19:50:53.905Z,7.40
2023-05-06T19:53:22.876Z,7.20
2023-05-06T19:55:49.901Z,7.80
2023-05-06T19:58:17.504Z,7.18
2023-05-06T20:00:45.627Z,7.38
2023-05-06T20:03:13.530Z,7.72
2023-05-06T20:05:41.299Z,8.50
2023-05-06T20:08:11.419Z,11.75
2023-05-06T20:10:38.712Z,9.07
2023-05-06T20:13:07.056Z,8.70
2023-05-06T20:15:35.325Z,8.13
2023-05-06T20:18:03.616Z,7.85
2023-05-06T20:20:34.229Z,8.63
2023-05-06T20:23:04.601Z,9.07
2023-05-06T20:25:31.896Z,7.82
2023-05-06T20:27:59.471Z,7.63
2023-05-06T20:30:26.842Z,7.47
2023-05-06T20:32:53.978Z,7.47
2023-05-06T20:35:20.936Z,8.13
2023-05-06T20:37:47.867Z,8.02
2023-05-06T20:40:15.221Z,7.60
2023-05-06T20:42:42.124Z,7.38
2023-05-06T20:45:09.950Z,8.15
2023-05-06T20:47:37.114Z,8.25
2023-05-06T20:50:04.436Z,9.27
2023-05-06T20:52:31.634Z,9.32
2023-05-06T20:54:58.552Z,9.88
2023-05-06T20:57:25.794Z,10.43
2023-05-06T20:59:52.896Z,10.57
2023-05-06T21:02:19.910Z,10.32
2023-05-06T21:04:46.996Z,10.18
2023-05-06T21:07:14.058Z,9.75
2023-05-06T21:09:40.978Z,10.77
2023-05-06T21:12:07.893Z,11.55
2023-05-06T21:14:34.840Z,10.00
2023-05-06T21:17:01.822Z,11.23
2023-05-06T21:19:28.717Z,15.10
2023-05-06T21:21:56.717Z,9.85
2023-05-06T21:24:23.599Z,9.75
2023-05-06T21:26:51.353Z,9.75
2023-05-06T21:29:18.686Z,10.23
2023-05-06T21:31:45.493Z,9.60
2023-05-06T21:34:12.458Z,10.15
2023-05-06T21:36:39.305Z,10.32
2023-05-06T21:39:12.125Z,10.52
2023-05-06T21:41:40.063Z,12.10
2023-05-06T21:44:09.062Z,10.85
2023-05-06T21:46:37.733Z,9.70
2023-05-06T21:49:05.220Z,9.50
2023-05-06T21:51:34.537Z,9.20
2023-05-06T21:54:02.471Z,15.23
2023-05-06T21:56:29.720Z,10.82
2023-05-06T21:58:56.745Z,13.73
2023-05-06T22:01:26.305Z,12.57
2023-05-06T22:03:53.937Z,10.25
2023-05-06T22:06:21.503Z,10.98
2023-05-06T22:08:48.403Z,10.80
2023-05-06T22:11:15.821Z,9.23
2023-05-06T22:13:42.707Z,10.60
2023-05-06T22:16:09.807Z,10.88
2023-05-06T22:18:41.157Z,10.45
2023-05-06T22:21:08.711Z,10.23
2023-05-06T22:23:35.738Z,11.50
2023-05-06T22:26:02.876Z,12.57
2023-05-06T22:28:29.898Z,13.38
2023-05-06T22:30:57.242Z,9.27
2023-05-06T22:33:25.933Z,10.10
2023-05-06T22:35:52.900Z,9.88
2023-05-06T22:38:19.847Z,9.20
2023-05-06T22:40:46.712Z,11.18
2023-05-06T22:43:13.614Z,11.18
2023-05-06T22:45:40.446Z,10.30
2023-05-06T22:48:07.661Z,9.30
2023-05-06T22:50:34.582Z,10.13
2023-05-06T22:53:10.389Z,9.57
2023-05-06T22:55:41.717Z,9.25
2023-05-06T22:58:08.673Z,19.80
2023-05-06T23:00:35.876Z,13.00
2023-05-06T23:03:02.990Z,9.50
2023-05-06T23:05:29.952Z,11.02
2023-05-06T23:07:56.835Z,9.70
2023-05-06T23:10:23.756Z,10.90
2023-05-06T23:12:50.745Z,9.88
2023-05-06T23:15:17.709Z,10.68
2023-05-06T23:17:44.645Z,9.80
2023-05-06T23:20:12.846Z,8.63
2023-05-06T23:22:39.843Z,9.18
2023-05-06T23:25:10.772Z,9.57
2023-05-06T23:27:40.395Z,9.32
2023-05-06T23:30:08.995Z,9.80
2023-05-06T23:32:36.874Z,9.98
2023-05-06T23:35:04.844Z,9.90
2023-05-06T23:37:31.936Z,10.05
2023-05-06T23:39:58.935Z,10.88
2023-05-06T23:42:26.498Z,10.80
2023-05-06T23:44:53.598Z,9.98
2023-05-06T23:47:20.787Z,9.57
2023-05-06T23:49:47.734Z,9.63
2023-05-06T23:52:14.700Z,11.63
2023-05-06T23:54:41.560Z,11.90
2023-05-06T23:57:08.401Z,11.18
2023-05-06T23:59:35.514Z,10.60
